createdAt,value
2023-03-20T00:01:03.279Z,12.07
2023-03-20T00:06:05.608Z,11.93
2023-03-20T00:11:17.230Z,11.99
2023-03-20T00:16:20.532Z,11.90
2023-03-20T00:21:22.343Z,11.78
2023-03-20T00:26:26.576Z,11.76
2023-03-20T00:31:30.410Z,11.78
2023-03-20T00:36:32.261Z,11.77
2023-03-20T00:41:37.862Z,11.69
2023-03-20T00:46:41.447Z,11.54
2023-03-20T00:51:43.199Z,11.48
2023-03-20T00:56:45.754Z,11.38
2023-03-20T01:01:48.936Z,11.36
2023-03-20T01:06:50.831Z,11.34
2023-03-20T01:11:54.095Z,11.32
2023-03-20T01:16:57.234Z,11.13
2023-03-20T01:21:59.123Z,10.97
2023-03-20T01:27:04.054Z,10.78
2023-03-20T01:32:09.638Z,10.57
2023-03-20T01:37:12.437Z,10.38
2023-03-20T01:42:14.289Z,10.09
2023-03-20T01:47:19.869Z,9.89
2023-03-20T01:52:22.026Z,9.86
2023-03-20T01:57:24.346Z,9.85
2023-03-20T02:02:29.439Z,9.97
2023-03-20T02:07:31.938Z,9.95
2023-03-20T02:12:38.550Z,9.99
2023-03-20T02:17:43.544Z,9.99
2023-03-20T02:23:21.120Z,9.99
2023-03-20T02:28:54.216Z,9.98
2023-03-20T02:34:19.309Z,10.01
2023-03-20T02:39:32.376Z,10.16
2023-03-20T02:44:36.842Z,10.24
2023-03-20T02:49:49.037Z,10.27
2023-03-20T02:54:55.339Z,10.35
2023-03-20T03:00:00.109Z,10.37
2023-03-20T03:05:03.546Z,10.29
2023-03-20T03:10:08.562Z,10.29
2023-03-20T03:15:13.583Z,10.29
2023-03-20T03:20:19.870Z,10.31
2023-03-20T03:25:24.186Z,10.33
2023-03-20T03:30:27.093Z,10.37
2023-03-20T03:35:31.123Z,10.35
2023-03-20T03:40:35.589Z,10.41
2023-03-20T03:45:38.694Z,10.35
2023-03-20T03:50:46.382Z,10.34
2023-03-20T03:55:50.814Z,10.33
2023-03-20T04:00:52.962Z,10.33
2023-03-20T04:05:54.896Z,10.42
2023-03-20T04:10:57.913Z,10.39
2023-03-20T04:15:59.626Z,10.27
2023-03-20T04:21:03.252Z,10.25
2023-03-20T04:26:06.903Z,10.22
2023-03-20T04:31:10.269Z,10.15
2023-03-20T04:36:21.654Z,10.13
2023-03-20T04:41:26.498Z,10.10
2023-03-20T04:46:30.817Z,10.06
2023-03-20T04:51:33.275Z,9.95
2023-03-20T04:56:36.479Z,9.87
2023-03-20T05:01:51.224Z,9.82
2023-03-20T05:06:53.132Z,9.82
2023-03-20T05:11:59.019Z,9.83
2023-03-20T05:17:36.353Z,9.85
2023-03-20T05:22:56.447Z,9.86
2023-03-20T05:28:18.224Z,9.75
2023-03-20T05:33:28.017Z,9.74
2023-03-20T05:38:43.426Z,9.72
2023-03-20T05:43:57.135Z,9.68
2023-03-20T05:49:17.383Z,9.68
2023-03-20T05:54:37.858Z,9.76
2023-03-20T05:59:59.416Z,9.83
2023-03-20T06:05:19.587Z,9.95
2023-03-20T06:10:27.526Z,10.02
2023-03-20T06:15:30.689Z,10.07
2023-03-20T06:20:41.863Z,10.10
2023-03-20T06:25:44.104Z,10.26
2023-03-20T06:30:47.724Z,10.40
2023-03-20T06:35:54.389Z,10.53
2023-03-20T06:40:57.425Z,10.51
2023-03-20T06:46:00.484Z,10.76
2023-03-20T06:51:04.801Z,10.99
2023-03-20T06:56:11.888Z,11.17
2023-03-20T07:01:17.772Z,11.31
2023-03-20T07:06:19.667Z,11.44
2023-03-20T07:11:22.385Z,11.51
2023-03-20T07:16:28.603Z,11.51
2023-03-20T07:21:30.622Z,11.56
2023-03-20T07:26:32.850Z,11.66
2023-03-20T07:31:36.399Z,11.60
2023-03-20T07:36:44.804Z,11.23
2023-03-20T07:41:50.674Z,11.04
2023-03-20T07:47:06.021Z,11.01
2023-03-20T07:52:07.847Z,10.94
2023-03-20T07:57:09.696Z,11.01
2023-03-20T08:02:15.277Z,11.43
2023-03-20T08:07:16.926Z,11.57
2023-03-20T08:12:18.803Z,11.54
2023-03-20T08:17:22.119Z,11.69
2023-03-20T08:22:23.884Z,11.79
2023-03-20T08:27:25.902Z,12.02
2023-03-20T08:32:29.002Z,12.10
2023-03-20T08:37:30.682Z,12.25
2023-03-20T08:42:33.046Z,12.18
2023-03-20T08:47:36.141Z,12.23
2023-03-20T08:52:37.806Z,12.03
2023-03-20T08:57:39.436Z,11.85
2023-03-20T09:02:42.542Z,11.69
2023-03-20T09:07:44.299Z,11.63
2023-03-20T09:12:46.061Z,11.59
2023-03-20T09:17:49.045Z,11.66
2023-03-20T09:22:50.765Z,11.74
2023-03-20T09:27:55.149Z,11.59
2023-03-20T09:32:58.213Z,11.56
2023-03-20T09:37:59.935Z,11.48
2023-03-20T09:43:05.350Z,11.56
2023-03-20T09:48:11.582Z,11.51
2023-03-20T09:53:15.445Z,11.44
2023-03-20T09:58:20.607Z,11.39
2023-03-20T10:03:26.941Z,11.42
2023-03-20T10:08:29.607Z,11.42
2023-03-20T10:13:52.218Z,11.50
2023-03-20T10:18:59.172Z,11.39
2023-03-20T10:24:03.251Z,11.40
2023-03-20T10:29:06.713Z,11.35
2023-03-20T10:34:17.662Z,11.38
2023-03-20T10:39:22.120Z,11.52
2023-03-20T10:44:27.378Z,11.64
2023-03-20T10:49:34.503Z,12.17
2023-03-20T10:54:38.932Z,12.18
2023-03-20T10:59:42.096Z,12.09
2023-03-20T11:04:45.165Z,12.02
2023-03-20T11:09:46.838Z,12.04
2023-03-20T11:14:48.512Z,12.41
2023-03-20T11:19:51.462Z,12.92
2023-03-20T11:24:54.123Z,13.40
2023-03-20T11:29:56.014Z,13.38
2023-03-20T11:35:18.654Z,13.55
2023-03-20T11:40:22.782Z,14.26
2023-03-20T11:45:25.562Z,13.91
2023-03-20T11:50:31.348Z,13.71
2023-03-20T11:55:33.481Z,13.20
2023-03-20T12:00:36.904Z,12.95
2023-03-20T12:05:40.094Z,12.65
2023-03-20T12:10:42.844Z,12.80
2023-03-20T12:15:45.957Z,12.62
2023-03-20T12:20:54.053Z,12.48
2023-03-20T12:25:57.331Z,12.89
2023-03-20T12:31:04.729Z,13.44
2023-03-20T12:36:11.409Z,13.40
2023-03-20T12:41:15.266Z,13.31
2023-03-20T12:46:23.471Z,13.13
2023-03-20T12:51:31.828Z,13.25
2023-03-20T12:56:46.263Z,13.28
2023-03-20T13:01:52.879Z,13.50
2023-03-20T13:06:56.782Z,13.46
2023-03-20T13:12:00.511Z,13.41
2023-03-20T13:17:04.496Z,13.16
2023-03-20T13:22:08.728Z,13.00
2023-03-20T13:27:23.689Z,13.04
2023-03-20T13:32:31.214Z,12.99
2023-03-20T13:37:36.033Z,13.09
2023-03-20T13:42:39.318Z,13.22
2023-03-20T13:47:41.045Z,13.30
2023-03-20T13:52:46.268Z,13.05
2023-03-20T13:58:03.701Z,12.82
2023-03-20T14:03:15.335Z,12.65
2023-03-20T14:08:23.014Z,12.68
2023-03-20T14:13:27.459Z,12.68
2023-03-20T14:18:30.122Z,12.82
2023-03-20T14:23:35.534Z,12.94
2023-03-20T14:28:53.651Z,13.09
2023-03-20T14:34:09.463Z,13.17
2023-03-20T14:39:15.585Z,13.21
2023-03-20T14:44:24.148Z,13.25
2023-03-20T14:49:46.440Z,13.08
2023-03-20T14:54:53.891Z,12.99
2023-03-20T14:59:55.667Z,12.72
2023-03-20T15:04:57.663Z,12.55
2023-03-20T15:10:02.857Z,12.47
2023-03-20T15:15:05.706Z,12.37
2023-03-20T15:20:12.792Z,12.25
2023-03-20T15:25:18.492Z,12.18
2023-03-20T15:30:21.113Z,12.27
2023-03-20T15:35:23.611Z,12.24
2023-03-20T15:40:37.087Z,12.21
2023-03-20T15:45:45.624Z,12.07
2023-03-20T15:50:50.460Z,12.05
2023-03-20T15:56:16.933Z,11.97
2023-03-20T16:01:20.746Z,11.86
2023-03-20T16:06:22.925Z,11.78
2023-03-20T16:11:33.569Z,11.70
2023-03-20T16:16:37.475Z,11.64
2023-03-20T16:21:40.350Z,11.61
2023-03-20T16:26:44.862Z,11.57
2023-03-20T16:31:52.981Z,11.58
2023-03-20T16:36:57.404Z,11.45
2023-03-20T16:42:11.693Z,11.38
2023-03-20T16:47:17.595Z,11.31
2023-03-20T16:52:22.347Z,11.28
2023-03-20T16:57:25.807Z,11.21
2023-03-20T17:02:29.617Z,11.16
2023-03-20T17:07:31.316Z,11.10
2023-03-20T17:12:36.578Z,10.97
2023-03-20T17:17:38.366Z,10.96
2023-03-20T17:22:40.142Z,10.89
2023-03-20T17:27:44.000Z,10.80
2023-03-20T17:32:46.312Z,10.74
2023-03-20T17:37:48.822Z,10.71
2023-03-20T17:42:52.165Z,10.72
2023-03-20T17:47:54.136Z,10.67
2023-03-20T17:52:55.867Z,10.60
2023-03-20T17:57:58.879Z,10.55
2023-03-20T18:03:00.546Z,10.53
2023-03-20T18:08:02.684Z,10.51
2023-03-20T18:13:05.752Z,10.51
2023-03-20T18:18:08.955Z,10.45
2023-03-20T18:23:10.853Z,10.41
2023-03-20T18:28:22.693Z,10.37
2023-03-20T18:33:27.537Z,10.39
2023-03-20T18:38:30.602Z,10.42
2023-03-20T18:43:33.795Z,10.43
2023-03-20T18:48:35.684Z,10.39
2023-03-20T18:53:38.031Z,10.38
2023-03-20T18:58:41.347Z,10.38
2023-03-20T19:03:43.344Z,10.40
2023-03-20T19:08:45.359Z,10.43
2023-03-20T19:13:50.742Z,10.40
2023-03-20T19:18:53.043Z,10.39
2023-03-20T19:23:56.869Z,10.38
2023-03-20T19:29:01.351Z,10.41
2023-03-20T19:34:03.364Z,10.38
2023-03-20T19:39:06.429Z,10.36
2023-03-20T19:44:09.610Z,10.32
2023-03-20T19:49:17.948Z,10.27
2023-03-20T19:54:19.905Z,10.19
2023-03-20T19:59:23.353Z,10.17
2023-03-20T20:04:25.064Z,10.18
2023-03-20T20:09:28.556Z,10.18
2023-03-20T20:14:35.134Z,10.08
2023-03-20T20:19:37.062Z,10.10
2023-03-20T20:24:39.242Z,10.03
2023-03-20T20:29:42.487Z,10.00
2023-03-20T20:40:08.726Z,9.98
2023-03-20T20:45:12.370Z,9.92
2023-03-20T20:50:14.934Z,9.90
2023-03-20T20:55:36.691Z,9.85
2023-03-20T21:00:51.243Z,9.83
2023-03-20T21:05:53.556Z,9.76
2023-03-20T21:10:55.275Z,9.74
2023-03-20T21:15:58.948Z,9.71
2023-03-20T21:21:04.659Z,9.68
2023-03-20T21:26:07.283Z,9.63
2023-03-20T21:31:24.567Z,9.62
2023-03-20T21:36:28.444Z,9.62
2023-03-20T21:41:30.194Z,9.58
2023-03-20T21:58:02.473Z,9.67
2023-03-20T22:02:43.717Z,9.54
2023-03-20T22:08:46.876Z,9.53
2023-03-20T22:19:34.279Z,9.54
2023-03-20T22:24:44.868Z,9.52
2023-03-20T22:30:00.611Z,9.55
2023-03-20T22:35:30.900Z,9.50
2023-03-20T22:50:28.970Z,9.16
2023-03-20T22:55:30.646Z,9.13
2023-03-20T23:00:32.341Z,9.17
2023-03-20T23:05:37.384Z,9.13
2023-03-20T23:10:58.620Z,9.10
2023-03-20T23:16:00.315Z,9.09
2023-03-20T23:21:03.586Z,9.00
2023-03-20T23:26:06.120Z,8.91
2023-03-20T23:31:11.209Z,8.84
2023-03-20T23:36:28.850Z,8.73
2023-03-20T23:42:02.435Z,8.77
2023-03-20T23:46:59.753Z,8.91
2023-03-20T23:52:04.379Z,9.00
2023-03-20T23:57:06.270Z,8.98
